Time;durP1;ratioP1;P1;durP2;ratioP2;P2;SDS_P1;SDS_P2;PMS_P1;PMS_P2;Temp;Humidity;BMP_temperature;BMP_pressure;BME280_temperature;BME280_humidity;BME280_pressure;Samples;Min_cycle;Max_cycle;Signal;HPM_P1;HPM_P2
2023/02/21 02:14:55;;;;;;;;;54.75;42.25;;;;;6.75;100.00;101938.03;5037481;28;45517;-73
2023/02/21 02:17:48;;;;;;;;;51.50;41.50;;;;;6.76;100.00;101939.81;5030828;28;45942;-73
2023/02/21 02:20:38;;;;;;;;;52.75;42.00;;;;;6.75;100.00;101938.03;5035925;28;45396;-74
2023/02/21 02:23:37;;;;;;;;;49.00;39.00;;;;;6.74;100.00;101930.09;5036412;28;45616;-76
2023/02/21 02:26:05;;;;;;;;;49.25;40.25;;;;;6.72;100.00;101930.03;5032201;28;45511;-74
2023/02/21 02:28:55;;;;;;;;;52.50;40.75;;;;;6.70;100.00;101926.44;5035926;28;47758;-75
2023/02/21 02:31:41;;;;;;;;;49.25;41.75;;;;;6.71;100.00;101930.88;5025318;28;45719;-74
2023/02/21 02:34:37;;;;;;;;;48.75;37.75;;;;;6.71;100.00;101929.94;5036308;28;45596;-74
2023/02/21 02:37:13;;;;;;;;;50.00;42.25;;;;;6.66;100.00;101916.66;5032068;28;46125;-75
2023/02/21 02:40:00;;;;;;;;;51.50;39.50;;;;;6.65;100.00;101913.94;5010884;28;46459;-75
2023/02/21 02:42:38;;;;;;;;;52.00;41.75;;;;;6.67;100.00;101912.31;5013039;28;45650;-73
2023/02/21 02:45:38;;;;;;;;;55.50;41.50;;;;;6.62;100.00;101909.47;5032132;28;45421;-74
2023/02/21 02:48:12;;;;;;;;;46.00;41.25;;;;;6.63;100.00;101910.38;5010595;28;45590;-74
2023/02/21 02:50:39;;;;;;;;;51.75;39.75;;;;;6.57;100.00;101906.63;5035684;28;46961;-74
2023/02/21 02:53:04;;;;;;;;;44.50;37.50;;;;;6.59;100.00;101906.69;5015478;28;62141;-74
2023/02/21 02:55:45;;;;;;;;;46.50;38.75;;;;;6.61;100.00;101904.16;5009697;28;45507;-73
2023/02/21 02:58:11;;;;;;;;;38.50;30.75;;;;;6.59;100.00;101904.06;5014137;28;45533;-74
2023/02/21 03:00:40;;;;;;;;;45.75;35.75;;;;;6.60;100.00;101899.72;5014212;28;46045;-74
2023/02/21 03:03:31;;;;;;;;;42.75;34.50;;;;;6.62;100.00;101905.94;5030877;28;45502;-75
2023/02/21 03:06:24;;;;;;;;;34.00;30.75;;;;;6.60;100.00;101902.34;5029267;28;45337;-74
2023/02/21 03:09:01;;;;;;;;;48.25;35.75;;;;;6.60;100.00;101900.63;5040344;28;45355;-74
2023/02/21 03:11:26;;;;;;;;;39.50;34.25;;;;;6.57;100.00;101892.63;5035701;28;46612;-74
2023/02/21 03:14:11;;;;;;;;;47.00;35.25;;;;;6.60;100.00;101891.84;5036083;28;45473;-74
2023/02/21 03:16:49;;;;;;;;;44.25;35.25;;;;;6.59;100.00;101880.44;5011271;28;45436;-74
2023/02/21 03:19:26;;;;;;;;;45.75;37.00;;;;;6.55;100.00;101889.94;5010620;28;45532;-74
2023/02/21 03:21:56;;;;;;;;;44.00;37.00;;;;;6.54;100.00;101880.25;5035260;28;45438;-73
2023/02/21 03:24:23;;;;;;;;;44.50;35.25;;;;;6.55;100.00;101889.00;5015100;28;45289;-74
2023/02/21 03:26:52;;;;;;;;;52.75;38.25;;;;;6.55;100.00;101884.69;5012359;28;45440;-75
2023/02/21 03:29:18;;;;;;;;;49.50;39.50;;;;;6.54;100.00;101881.97;5017483;28;45494;-73
2023/02/21 03:31:47;;;;;;;;;45.00;38.75;;;;;6.55;100.00;101883.78;5012938;28;65738;-74
2023/02/21 03:34:13;;;;;;;;;44.50;37.75;;;;;6.53;100.00;101880.19;5016750;28;45501;-74
2023/02/21 03:36:38;;;;;;;;;51.50;40.50;;;;;6.50;100.00;101873.09;5015938;28;52686;-75
2023/02/21 03:39:04;;;;;;;;;58.25;42.75;;;;;6.50;100.00;101867.84;5034743;28;45518;-73
2023/02/21 03:41:29;;;;;;;;;54.50;42.25;;;;;6.49;100.00;101867.75;5018655;28;47007;-76
2023/02/21 03:43:55;;;;;;;;;59.75;44.25;;;;;6.43;100.00;101865.75;5018928;28;47969;-74
2023/02/21 03:46:20;;;;;;;;;63.75;45.50;;;;;6.44;100.00;101866.66;5038435;28;45835;-74
2023/02/21 03:48:46;;;;;;;;;57.50;42.50;;;;;6.43;100.00;101878.88;5038183;28;45567;-75
2023/02/21 03:51:11;;;;;;;;;68.25;54.00;;;;;6.39;100.00;101871.72;5019201;28;45904;-74
2023/02/21 03:53:37;;;;;;;;;70.50;54.25;;;;;6.41;100.00;101869.16;5038297;28;45399;-74
2023/02/21 03:56:02;;;;;;;;;69.25;53.25;;;;;6.40;100.00;101867.38;5038345;28;45362;-76
2023/02/21 03:58:28;;;;;;;;;74.75;52.75;;;;;6.36;100.00;101863.72;5035477;28;46894;-74
2023/02/21 04:00:53;;;;;;;;;68.00;52.25;;;;;6.38;100.00;101858.53;5038203;28;57005;-76
2023/02/21 04:03:19;;;;;;;;;71.50;56.00;;;;;6.36;100.00;101860.19;5021007;28;45456;-74
2023/02/21 04:05:44;;;;;;;;;72.75;56.25;;;;;6.35;100.00;101861.03;5014536;28;45588;-73
2023/02/21 04:08:09;;;;;;;;;73.75;53.50;;;;;6.33;100.00;101860.03;5018495;28;50382;-74
2023/02/21 04:10:35;;;;;;;;;76.25;55.00;;;;;6.30;100.00;101855.56;5019730;28;46191;-74
2023/02/21 04:13:00;;;;;;;;;72.25;55.25;;;;;6.30;100.00;101856.47;5036900;28;45413;-75
2023/02/21 04:15:26;;;;;;;;;70.50;54.25;;;;;6.29;100.00;101856.41;5018327;28;45453;-74
2023/02/21 04:17:51;;;;;;;;;74.25;56.00;;;;;6.30;100.00;101845.97;5019251;28;56410;-75
2023/02/21 04:20:16;;;;;;;;;71.50;51.00;;;;;6.27;100.00;101837.94;5037845;28;46239;-74
2023/02/21 04:22:42;;;;;;;;;73.00;52.50;;;;;6.27;100.00;101858.94;5017259;28;46463;-74
2023/02/21 04:25:08;;;;;;;;;73.00;54.75;;;;;6.24;100.00;101850.94;5037504;28;45398;-74
2023/02/21 04:27:36;;;;;;;;;72.50;50.75;;;;;6.23;100.00;101858.72;5017133;28;45393;-76
2023/02/21 04:30:01;;;;;;;;;80.75;58.25;;;;;6.21;100.00;101860.41;5037613;28;45783;-76
2023/02/21 04:32:27;;;;;;;;;71.75;52.25;;;;;6.20;100.00;101859.50;5016900;28;45423;-74
2023/02/21 04:34:52;;;;;;;;;75.00;57.25;;;;;6.19;100.00;101857.72;5037562;28;45471;-75
2023/02/21 04:37:18;;;;;;;;;78.00;52.75;;;;;6.20;100.00;101850.75;5038074;28;45536;-75
2023/02/21 04:39:43;;;;;;;;;72.00;53.50;;;;;6.19;100.00;101857.72;5018087;28;46564;-74
2023/02/21 04:42:09;;;;;;;;;66.25;52.50;;;;;6.17;100.00;101854.09;5017223;28;45561;-73
2023/02/21 04:44:35;;;;;;;;;73.25;53.50;;;;;6.18;100.00;101861.16;5016790;28;45242;-74
2023/02/21 04:47:00;;;;;;;;;70.50;53.25;;;;;6.15;100.00;101850.53;5014252;28;45195;-74
2023/02/21 04:49:26;;;;;;;;;77.25;53.25;;;;;6.11;100.00;101851.22;5033711;28;55518;-75
2023/02/21 04:51:52;;;;;;;;;72.50;52.75;;;;;6.09;100.00;101855.50;5016112;28;45433;-74
2023/02/21 04:54:18;;;;;;;;;71.00;54.25;;;;;6.10;100.00;101852.03;5018812;28;45409;-74
2023/02/21 04:56:43;;;;;;;;;68.00;52.50;;;;;6.09;100.00;101855.50;5015113;28;45415;-76
2023/02/21 04:59:08;;;;;;;;;66.75;49.50;;;;;6.08;100.00;101855.44;5036648;28;46509;-74
2023/02/21 05:01:34;;;;;;;;;60.50;46.00;;;;;6.08;100.00;101850.19;5037279;28;45401;-74
2023/02/21 05:03:59;;;;;;;;;63.50;48.25;;;;;6.04;100.00;101854.38;5036919;28;45547;-74
2023/02/21 05:06:26;;;;;;;;;72.25;51.25;;;;;6.03;100.00;101852.59;5033239;28;45345;-74
2023/02/21 05:08:51;;;;;;;;;61.50;51.00;;;;;6.02;100.00;101851.72;5017083;28;48704;-76
2023/02/21 05:11:18;;;;;;;;;53.75;46.00;;;;;5.98;100.00;101852.38;5038347;28;45353;-74
2023/02/21 05:13:44;;;;;;;;;61.50;47.00;;;;;6.01;100.00;101855.13;5000426;28;45216;-74
2023/02/21 05:16:10;;;;;;;;;62.50;51.75;;;;;6.01;100.00;101849.00;5019013;28;45497;-74
2023/02/21 05:18:37;;;;;;;;;63.00;48.75;;;;;5.98;100.00;101848.88;5035277;28;45549;-74
2023/02/21 05:21:04;;;;;;;;;62.50;48.00;;;;;5.98;100.00;101856.75;5037221;28;45329;-74
2023/02/21 05:23:35;;;;;;;;;56.50;43.75;;;;;5.95;100.00;101849.63;5014338;28;45302;-74
2023/02/21 05:26:06;;;;;;;;;54.50;44.25;;;;;5.95;100.00;101854.84;5024886;28;45541;-74
2023/02/21 05:28:32;;;;;;;;;46.25;28.50;;;;;5.94;100.00;101853.06;5036391;28;46857;-74
2023/02/21 05:30:57;;;;;;;;;57.50;43.25;;;;;5.93;100.00;101848.66;5016591;28;45590;-76
2023/02/21 05:33:23;;;;;;;;;56.50;44.00;;;;;5.92;100.00;101848.59;5010018;28;46364;-74
2023/02/21 05:35:49;;;;;;;;;59.50;43.50;;;;;5.90;100.00;101840.59;5028308;28;45354;-75
2023/02/21 05:38:15;;;;;;;;;51.75;42.75;;;;;5.93;100.00;101847.75;5018552;28;46327;-74
2023/02/21 05:40:41;;;;;;;;;60.25;44.50;;;;;5.87;100.00;101835.25;5025518;28;45538;-74
2023/02/21 05:43:06;;;;;;;;;59.25;45.25;;;;;5.87;100.00;101824.75;5036185;28;45515;-74
2023/02/21 05:45:31;;;;;;;;;56.50;45.50;;;;;5.84;100.00;101823.72;5010729;28;45277;-74
2023/02/21 05:47:59;;;;;;;;;51.25;35.50;;;;;5.85;100.00;101828.13;5036093;28;45466;-74
2023/02/21 05:50:25;;;;;;;;;61.75;47.00;;;;;5.86;100.00;101822.97;5018947;28;45367;-74
2023/02/21 05:52:51;;;;;;;;;51.25;40.75;;;;;5.85;100.00;101821.16;5036322;28;45505;-74
2023/02/21 05:55:17;;;;;;;;;59.75;46.50;;;;;5.86;100.00;101817.72;5036661;28;45564;-73
2023/02/21 05:57:42;;;;;;;;;55.25;40.00;;;;;5.84;100.00;101810.59;5000897;28;48681;-73
2023/02/21 06:00:15;;;;;;;;;56.50;43.25;;;;;5.83;100.00;101796.59;5014879;28;47863;-74
2023/02/21 06:02:40;;;;;;;;;47.00;39.50;;;;;5.81;100.00;101807.88;5010408;28;45464;-75
2023/02/21 06:05:06;;;;;;;;;60.75;44.25;;;;;5.78;100.00;101804.25;5014953;28;54617;-74
2023/02/21 06:07:31;;;;;;;;;50.25;42.50;;;;;5.74;100.00;101801.41;5033701;28;45476;-74
2023/02/21 06:09:57;;;;;;;;;54.50;43.00;;;;;5.75;100.00;101811.06;5036765;28;45425;-74
2023/02/21 06:12:22;;;;;;;;;57.75;44.75;;;;;5.70;100.00;101799.47;5037316;28;45522;-73
2023/02/21 06:14:47;;;;;;;;;61.75;46.50;;;;;5.73;100.00;101810.09;5011475;28;46112;-75
2023/02/21 06:17:13;;;;;;;;;65.25;48.50;;;;;5.73;100.00;101807.50;5032943;28;59637;-73
2023/02/21 06:19:38;;;;;;;;;64.25;47.25;;;;;5.74;100.00;101811.91;5034952;28;55112;-75
2023/02/21 06:22:03;;;;;;;;;57.50;44.25;;;;;5.74;100.00;101806.66;5035006;28;52167;-74
2023/02/21 06:24:29;;;;;;;;;58.50;44.00;;;;;5.71;100.00;101802.19;5034854;28;53025;-74
2023/02/21 06:26:54;;;;;;;;;58.25;47.25;;;;;5.72;100.00;101800.47;5029784;28;45866;-74
2023/02/21 06:29:19;;;;;;;;;49.50;43.00;;;;;5.71;100.00;101798.69;5035499;28;45447;-74
2023/02/21 06:31:45;;;;;;;;;57.75;44.00;;;;;5.66;100.00;101785.34;5018119;28;45781;-73
2023/02/21 06:34:10;;;;;;;;;45.75;38.00;;;;;5.68;100.00;101794.16;5035948;28;45409;-75
2023/02/21 06:36:38;;;;;;;;;63.75;45.25;;;;;5.67;100.00;101787.16;5017748;28;45560;-74
2023/02/21 06:39:03;;;;;;;;;64.25;45.75;;;;;5.64;100.00;101776.50;5032168;28;45600;-74
2023/02/21 06:41:29;;;;;;;;;51.25;38.75;;;;;5.67;100.00;101776.66;5018246;28;45758;-75
2023/02/21 06:43:56;;;;;;;;;60.00;44.75;;;;;5.67;100.00;101774.03;5016337;28;45493;-74
2023/02/21 06:46:24;;;;;;;;;67.75;47.25;;;;;5.69;100.00;101772.38;5016364;28;45656;-75
2023/02/21 06:48:50;;;;;;;;;43.50;29.00;;;;;5.66;100.00;101768.75;5016843;28;45367;-74
2023/02/21 06:51:16;;;;;;;;;56.50;45.00;;;;;5.65;100.00;101775.72;5034868;28;46410;-74
2023/02/21 06:53:42;;;;;;;;;57.50;46.00;;;;;5.62;100.00;101770.31;5036645;28;45540;-74
2023/02/21 06:56:08;;;;;;;;;62.00;43.50;;;;;5.64;100.00;101773.88;5014878;28;45800;-74
2023/02/21 06:58:34;;;;;;;;;65.75;48.00;;;;;5.64;100.00;101768.66;5033848;28;50117;-75
2023/02/21 07:00:59;;;;;;;;;68.00;49.00;;;;;5.63;100.00;101760.72;5016237;28;45522;-73
2023/02/21 07:03:25;;;;;;;;;56.50;43.50;;;;;5.63;100.00;101766.88;5017114;28;55448;-76
2023/02/21 07:05:50;;;;;;;;;57.00;42.50;;;;;5.64;100.00;101762.53;5034250;28;45643;-74
2023/02/21 07:08:15;;;;;;;;;64.00;46.75;;;;;5.63;100.00;101752.88;5039161;28;51739;-74
2023/02/21 07:10:41;;;;;;;;;55.00;42.25;;;;;5.66;100.00;101759.16;5029780;28;53248;-75
2023/02/21 07:13:06;;;;;;;;;62.00;46.75;;;;;5.66;100.00;101759.16;5032530;28;49806;-74
2023/02/21 07:15:32;;;;;;;;;65.75;49.00;;;;;5.65;100.00;101753.84;5034912;28;45835;-75
2023/02/21 07:17:57;;;;;;;;;65.25;45.00;;;;;5.67;100.00;101758.31;5010815;28;60001;-74
2023/02/21 07:20:23;;;;;;;;;62.00;47.25;;;;;5.70;100.00;101766.34;5014581;28;51784;-75
2023/02/21 07:22:48;;;;;;;;;52.75;44.00;;;;;5.70;100.00;101762.78;5014348;28;45607;-74
2023/02/21 07:25:15;;;;;;;;;59.25;45.25;;;;;5.73;100.00;101765.56;5031331;28;48923;-75
2023/02/21 07:27:41;;;;;;;;;59.00;46.50;;;;;5.70;100.00;101761.09;5014962;28;45592;-74
2023/02/21 07:30:06;;;;;;;;;59.25;43.50;;;;;5.76;100.00;101755.25;5013598;28;57296;-75
2023/02/21 07:32:32;;;;;;;;;60.75;44.00;;;;;5.78;100.00;101761.44;5015204;28;45511;-75
2023/02/21 07:34:57;;;;;;;;;56.75;45.00;;;;;5.81;100.00;101763.31;5031168;28;62089;-76
2023/02/21 07:37:22;;;;;;;;;65.25;48.00;;;;;5.84;100.00;101756.47;5034140;28;59684;-75
2023/02/21 07:39:48;;;;;;;;;54.25;42.75;;;;;5.90;100.00;101761.06;5003136;28;45411;-74
2023/02/21 07:42:13;;;;;;;;;59.50;47.75;;;;;5.94;100.00;101761.31;5042518;28;45423;-77
2023/02/21 07:44:39;;;;;;;;;55.25;43.25;;;;;5.95;100.00;101755.25;5013997;28;61767;-74
2023/02/21 07:47:05;;;;;;;;;57.75;43.75;;;;;6.00;100.00;101753.72;4997195;28;46319;-80
2023/02/21 07:49:30;;;;;;;;;52.00;41.50;;;;;6.03;100.00;101755.59;5009200;28;45429;-76
2023/02/21 07:51:55;;;;;;;;;54.75;42.50;;;;;6.03;100.00;101758.22;4999224;28;53568;-78
2023/02/21 07:54:22;;;;;;;;;54.75;43.00;;;;;6.06;100.00;101760.97;5006879;28;47536;-79
2023/02/21 07:56:48;;;;;;;;;62.25;44.00;;;;;6.07;100.00;101765.38;4999506;28;45631;-77
2023/02/21 07:59:14;;;;;;;;;69.25;49.50;;;;;6.13;100.00;101764.78;4996174;28;45498;-79
2023/02/21 08:01:40;;;;;;;;;54.25;42.25;;;;;6.16;100.00;101768.41;5034167;28;45338;-77
2023/02/21 08:04:05;;;;;;;;;63.50;46.75;;;;;6.22;100.00;101768.66;5114968;22;47567;-80
2023/02/21 08:06:33;;;;;;;;;56.50;45.25;;;;;6.27;100.00;101761.00;5033469;28;45441;-80
2023/02/21 08:08:58;;;;;;;;;62.50;47.75;;;;;6.31;100.00;101760.31;5015022;28;45512;-78
2023/02/21 08:11:23;;;;;;;;;60.00;44.00;;;;;6.37;100.00;101757.06;5035191;28;48538;-76
2023/02/21 08:13:49;;;;;;;;;59.00;43.25;;;;;6.39;100.00;101756.31;5034890;28;57508;-80
2023/02/21 08:16:14;;;;;;;;;64.75;49.25;;;;;6.43;100.00;101749.44;5030656;28;45606;-76
2023/02/21 08:18:41;;;;;;;;;63.25;47.00;;;;;6.48;100.00;101747.91;5036578;28;45528;-76
2023/02/21 08:21:09;;;;;;;;;55.25;46.00;;;;;6.51;100.00;101745.44;5031725;28;46535;-76
2023/02/21 08:23:34;;;;;;;;;58.00;46.75;;;;;6.55;100.00;101752.56;5037264;28;45903;-79
2023/02/21 08:25:59;;;;;;;;;54.25;44.00;;;;;6.62;100.00;101748.50;5039238;28;45552;-78
2023/02/21 08:28:25;;;;;;;;;62.75;47.00;;;;;6.66;100.00;101743.44;5041616;28;45791;-76
2023/02/21 08:30:51;;;;;;;;;65.50;50.00;;;;;6.68;100.00;101740.88;5034612;28;45591;-74
2023/02/21 08:33:16;;;;;;;;;65.50;46.75;;;;;6.74;100.00;101752.53;5037955;28;46417;-75
2023/02/21 08:35:42;;;;;;;;;67.75;48.00;;;;;6.77;100.00;101741.28;5040721;28;52127;-76
2023/02/21 08:38:09;;;;;;;;;64.00;46.75;;;;;6.80;100.00;101742.25;5039357;28;45516;-77
2023/02/21 08:40:34;;;;;;;;;61.50;43.00;;;;;6.86;100.00;101746.88;5039771;28;45611;-76
2023/02/21 08:43:00;;;;;;;;;60.50;45.00;;;;;6.92;100.00;101746.22;5038848;28;54447;-75
2023/02/21 08:45:26;;;;;;;;;62.75;47.00;;;;;6.96;100.00;101749.03;5038708;28;45478;-76
2023/02/21 08:47:52;;;;;;;;;64.75;48.75;;;;;6.99;100.00;101741.28;5036630;28;45423;-78
2023/02/21 08:50:19;;;;;;;;;64.75;51.25;;;;;7.07;100.00;101752.09;5045324;28;45620;-75
2023/02/21 08:52:45;;;;;;;;;60.50;46.75;;;;;7.13;100.00;101743.56;5037432;28;45551;-78
2023/02/21 08:55:11;;;;;;;;;63.00;46.50;;;;;7.17;100.00;101742.84;5035634;28;46218;-77
2023/02/21 08:57:36;;;;;;;;;60.25;46.25;;;;;7.23;100.00;101741.34;5021221;28;46926;-77
2023/02/21 09:00:05;;;;;;;;;58.50;43.00;;;;;7.29;100.00;101748.56;5034938;28;45504;-77
2023/02/21 09:02:31;;;;;;;;;63.25;47.50;;;;;7.32;100.00;101733.84;5035295;28;45953;-75
2023/02/21 09:04:58;;;;;;;;;65.25;50.75;;;;;7.41;100.00;101742.94;5055471;28;45543;-75
2023/02/21 09:07:23;;;;;;;;;61.50;48.50;;;;;7.48;100.00;101742.31;5025879;28;45950;-76
2023/02/21 09:09:49;;;;;;;;;70.50;50.75;;;;;7.54;100.00;101734.66;5011669;28;45497;-78
2023/02/21 09:12:15;;;;;;;;;61.50;46.25;;;;;7.63;100.00;101745.53;5033535;28;45908;-77
2023/02/21 09:14:42;;;;;;;;;73.50;55.25;;;;;7.69;100.00;101748.38;5033541;28;47679;-79
2023/02/21 09:17:10;;;;;;;;;63.00;50.50;;;;;7.74;100.00;101746.81;5030973;28;45283;-80
2023/02/21 09:19:36;;;;;;;;;69.75;52.00;;;;;7.83;100.00;101744.53;5018689;28;45638;-79
2023/02/21 09:22:03;;;;;;;;;67.00;51.25;;;;;7.88;100.00;101742.97;5035555;28;47335;-77
2023/02/21 09:24:28;;;;;;;;;72.50;56.25;;;;;7.93;100.00;101743.09;5043906;28;45774;-77
2023/02/21 09:26:58;;;;;;;;;63.75;48.50;;;;;7.96;100.00;101739.72;5039191;28;45513;-80
2023/02/21 09:29:27;;;;;;;;;70.75;53.25;;;;;8.03;100.00;101750.50;5021745;28;45672;-76
2023/02/21 09:31:52;;;;;;;;;67.00;50.00;;;;;8.07;100.00;101747.13;5033800;28;45964;-76
2023/02/21 09:34:18;;;;;;;;;67.75;53.00;;;;;8.11;100.00;101742.91;5040749;28;45407;-77
2023/02/21 09:36:44;;;;;;;;;71.00;54.75;;;;;8.18;100.00;101737.00;5057204;28;45511;-77
2023/02/21 09:39:09;;;;;;;;;65.50;50.75;;;;;8.25;100.00;101740.72;5054517;28;45629;-77
2023/02/21 09:41:36;;;;;;;;;68.00;52.00;;;;;8.30;100.00;101737.41;5035100;28;46183;-76
2023/02/21 09:44:03;;;;;;;;;76.00;57.25;;;;;8.35;100.00;101734.94;5018099;28;45754;-76
2023/02/21 09:46:37;;;;;;;;;66.75;52.00;;;;;8.39;100.00;101735.16;5038566;28;45526;-75
2023/02/21 09:49:05;;;;;;;;;67.50;50.00;;;;;8.46;100.00;101732.72;5036232;28;46292;-78
2023/02/21 09:51:31;;;;;;;;;67.50;53.25;;;;;8.52;100.00;101732.91;5039595;28;46986;-76
2023/02/21 09:53:58;;;;;;;;;62.25;51.00;;;;;8.59;100.00;101725.31;5058034;28;45480;-79
2023/02/21 09:56:29;;;;;;;;;67.50;51.75;;;;;8.63;100.00;101727.19;5030101;28;45985;-77
2023/02/21 09:58:57;;;;;;;;;68.75;52.25;;;;;8.69;100.00;101722.97;5034831;28;45555;-78
2023/02/21 10:01:50;;;;;;;;;62.50;51.50;;;;;8.80;100.00;101729.50;5038401;28;45683;-79
2023/02/21 10:04:37;;;;;;;;;70.00;50.25;;;;;8.87;100.00;101728.84;5033442;28;45406;-77
2023/02/21 10:07:12;;;;;;;;;71.00;54.50;;;;;8.94;100.00;101722.91;5038012;28;45507;-76
2023/02/21 10:10:15;;;;;;;;;70.25;53.50;;;;;9.03;100.00;101724.94;5037558;28;45475;-76
2023/02/21 10:12:51;;;;;;;;;69.00;52.50;;;;;9.11;100.00;101723.47;5013868;28;46477;-76
2023/02/21 10:16:02;;;;;;;;;66.50;52.50;;;;;9.20;100.00;101721.09;5023251;28;46180;-79
2023/02/21 10:18:50;;;;;;;;;74.75;54.50;;;;;9.24;100.00;101712.44;4984175;28;45608;-76
2023/02/21 10:21:23;;;;;;;;;70.75;55.00;;;;;9.31;100.00;101718.78;4965975;28;45321;-76
2023/02/21 10:23:50;;;;;;;;;74.00;54.00;;;;;9.36;100.00;101730.34;5020727;28;47671;-76
2023/02/21 10:26:27;;;;;;;;;76.50;58.25;;;;;9.39;100.00;101718.19;5039050;28;46190;-76
2023/02/21 10:28:54;;;;;;;;;73.75;54.75;;;;;9.47;100.00;101726.28;5055163;28;45471;-75
2023/02/21 10:31:30;;;;;;;;;72.00;55.50;;;;;9.52;100.00;101715.91;5052864;28;45353;-77
2023/02/21 10:33:55;;;;;;;;;78.75;56.25;;;;;9.57;100.00;101703.75;5034621;28;45959;-76
2023/02/21 10:36:22;;;;;;;;;70.75;55.50;;;;;9.65;100.00;101712.78;5038977;28;45452;-75
2023/02/21 10:39:02;;;;;;;;;76.25;57.00;;;;;9.76;100.00;101715.72;5037302;28;45986;-75
2023/02/21 10:41:32;;;;;;;;;74.25;56.00;;;;;9.82;100.00;101703.59;5037116;28;45544;-75
2023/02/21 10:44:03;;;;;;;;;75.25;55.50;;;;;9.91;100.00;101701.22;5036447;28;46565;-76
2023/02/21 10:46:53;;;;;;;;;75.00;56.50;;;;;10.03;100.00;101708.56;5039736;28;45453;-73
2023/02/21 10:49:27;;;;;;;;;75.50;55.25;;;;;10.09;100.00;101697.28;5036869;28;45558;-76
2023/02/21 10:52:08;;;;;;;;;75.25;57.50;;;;;10.20;100.00;101706.38;5054924;28;45463;-75
2023/02/21 10:54:34;;;;;;;;;73.50;54.75;;;;;10.28;100.00;101699.59;5056236;28;46643;-74
2023/02/21 10:57:01;;;;;;;;;74.75;56.50;;;;;10.38;100.00;101687.50;5043106;28;45377;-76
2023/02/21 10:59:33;;;;;;;;;71.00;52.50;;;;;10.43;100.00;101681.50;5036983;28;45532;-77
2023/02/21 11:02:00;;;;;;;;;72.25;55.75;;;;;10.53;100.00;101685.25;5032766;28;45325;-76
2023/02/21 11:04:33;;;;;;;;;74.25;54.25;;;;;10.63;100.00;101681.09;5053964;28;45521;-76
2023/02/21 11:07:04;;;;;;;;;73.00;52.75;;;;;10.72;100.00;101676.06;5036382;28;45476;-75
2023/02/21 11:09:35;;;;;;;;;72.00;54.50;;;;;10.83;100.00;101682.47;5052193;28;45771;-73
2023/02/21 11:12:18;;;;;;;;;72.75;54.25;;;;;10.97;100.00;101678.41;5055181;28;45527;-72
2023/02/21 11:14:49;;;;;;;;;70.75;56.75;;;;;11.10;100.00;101674.28;5054258;28;46554;-76
2023/02/21 11:17:21;;;;;;;;;72.50;57.25;;;;;11.22;100.00;101668.38;5057773;28;45475;-75
2023/02/21 11:19:57;;;;;;;;;77.00;56.00;;;;;11.34;100.00;101665.09;5039228;28;45429;-73
2023/02/21 11:22:35;;;;;;;;;74.00;56.00;;;;;11.46;100.00;101663.63;5052529;28;45524;-73
2023/02/21 11:25:19;;;;;;;;;70.75;55.00;;;;;11.65;100.00;101663.97;5054978;28;46790;-73
2023/02/21 11:28:16;;;;;;;;;74.25;56.50;;;;;11.77;100.00;101650.97;5053682;28;45563;-75
2023/02/21 11:31:02;;;;;;;;;72.75;54.75;;;;;11.94;100.00;101648.72;5054142;28;45501;-73
2023/02/21 11:33:28;;;;;;;;;72.50;55.00;;;;;12.03;100.00;101638.28;5034103;28;45259;-74
2023/02/21 11:36:11;;;;;;;;;71.75;55.75;;;;;12.16;100.00;101642.03;5037372;28;46191;-75
2023/02/21 11:38:42;;;;;;;;;64.50;51.25;;;;;12.23;100.00;101628.03;5051769;28;45379;-74
2023/02/21 11:41:19;;;;;;;;;74.25;54.00;;;;;12.29;100.00;101622.84;5033602;28;45534;-76
2023/02/21 11:43:50;;;;;;;;;68.00;53.00;;;;;12.34;100.00;101613.22;5054587;28;45455;-75
2023/02/21 11:46:33;;;;;;;;;72.75;54.75;;;;;12.41;100.00;101606.25;5038659;28;45714;-76
2023/02/21 11:49:14;;;;;;;;;71.00;57.25;;;;;12.48;100.00;101611.69;5054638;28;45423;-75
2023/02/21 11:51:46;;;;;;;;;74.75;55.75;;;;;12.61;100.00;101604.81;5055902;28;45446;-75
2023/02/21 11:54:12;;;;;;;;;71.75;54.50;;;;;12.72;100.00;101595.25;5049988;28;45337;-76
2023/02/21 11:56:37;;;;;;;;;73.25;55.25;;;;;12.85;100.00;101591.94;5048867;28;46646;-75
2023/02/21 11:59:23;;;;;;;;;68.50;54.50;;;;;12.98;100.00;101594.72;5056146;28;45518;-74
2023/02/21 12:01:57;;;;;;;;;69.25;54.00;;;;;13.04;100.00;101585.09;5057858;28;45477;-74
2023/02/21 12:05:02;;;;;;;;;74.00;57.50;;;;;13.11;100.00;101575.47;5051918;28;45540;-74
2023/02/21 12:07:47;;;;;;;;;73.25;55.75;;;;;13.18;100.00;101574.66;5040744;28;46789;-75
2023/02/21 12:10:28;;;;;;;;;74.50;56.75;;;;;13.25;100.00;101562.41;5037589;28;45464;-74
2023/02/21 12:13:11;;;;;;;;;65.50;53.50;;;;;13.32;100.00;101558.97;5056955;28;47203;-74
2023/02/21 12:15:54;;;;;;;;;74.25;55.50;;;;;13.39;100.00;101555.50;5052997;28;45456;-74
2023/02/21 12:18:36;;;;;;;;;70.00;55.75;;;;;13.46;100.00;101544.06;5035353;28;47842;-73
2023/02/21 12:21:33;;;;;;;;;72.75;55.00;;;;;13.55;100.00;101544.19;5039401;28;45448;-73
2023/02/21 12:24:17;;;;;;;;;71.75;52.25;;;;;13.63;100.00;101539.84;5040574;28;45459;-74
2023/02/21 12:26:57;;;;;;;;;67.00;51.25;;;;;13.70;100.00;101535.47;5052915;28;45472;-73
2023/02/21 12:29:37;;;;;;;;;66.25;52.75;;;;;13.78;100.00;101523.16;5055871;28;45472;-73
2023/02/21 12:32:23;;;;;;;;;68.25;52.75;;;;;13.82;100.00;101517.00;5023222;28;47083;-74
2023/02/21 12:34:54;;;;;;;;;66.75;51.00;;;;;13.91;100.00;101515.31;5055098;28;45524;-74
2023/02/21 12:37:25;;;;;;;;;61.50;49.75;;;;;13.95;100.00;101515.31;5038643;28;45695;-75
2023/02/21 12:40:15;;;;;;;;;64.00;49.25;;;;;13.97;100.00;101505.63;5038532;28;46122;-73
2023/02/21 12:42:46;;;;;;;;;66.50;50.50;;;;;13.99;100.00;101495.00;5056099;28;46249;-75
2023/02/21 12:45:19;;;;;;;;;64.50;49.25;;;;;13.99;100.00;101495.91;5057454;28;45578;-74
2023/02/21 12:47:44;;;;;;;;;65.75;49.00;;;;;13.99;100.00;101485.28;5064573;28;45384;-74
2023/02/21 12:50:34;;;;;;;;;59.00;48.00;;;;;14.00;100.00;101473.78;5059612;28;45518;-74
2023/02/21 12:53:04;;;;;;;;;66.00;50.00;;;;;14.00;100.00;101459.59;5057783;28;45539;-75
2023/02/21 12:55:37;;;;;;;;;68.75;52.00;;;;;13.99;100.00;101460.50;5037751;28;45390;-74
2023/02/21 12:58:18;;;;;;;;;64.00;50.50;;;;;14.05;100.00;101464.06;5039209;28;45607;-74
2023/02/21 13:00:48;;;;;;;;;65.50;50.25;;;;;14.05;100.00;101455.22;5053578;28;46551;-73
2023/02/21 13:03:35;;;;;;;;;66.75;50.50;;;;;14.08;100.00;101453.50;5048718;28;45482;-74
2023/02/21 13:06:09;;;;;;;;;64.00;49.75;;;;;14.09;100.00;101449.06;5055061;28;45532;-75
2023/02/21 13:08:46;;;;;;;;;63.00;50.00;;;;;14.11;100.00;101440.25;5052387;28;45679;-76
2023/02/21 13:11:22;;;;;;;;;67.75;53.00;;;;;14.16;100.00;101441.13;5052152;28;45695;-78
2023/02/21 13:13:48;;;;;;;;;64.25;49.00;;;;;14.16;100.00;101432.28;5033496;28;45604;-74
2023/02/21 13:16:17;;;;;;;;;58.75;47.25;;;;;14.20;100.00;101436.72;5056845;28;45498;-75
2023/02/21 13:18:58;;;;;;;;;64.25;48.25;;;;;14.21;100.00;101425.22;5056533;28;45479;-74
2023/02/21 13:22:01;;;;;;;;;60.00;47.50;;;;;14.21;100.00;101427.00;5054823;28;46837;-75
2023/02/21 13:24:58;;;;;;;;;60.50;48.00;;;;;14.21;100.00;101434.97;4999291;28;45518;-74
2023/02/21 13:27:54;;;;;;;;;59.75;46.50;;;;;14.19;100.00;101421.69;5054504;28;45486;-73
2023/02/21 13:30:32;;;;;;;;;60.75;47.75;;;;;14.24;100.00;101419.06;5034073;28;45413;-74
2023/02/21 13:32:59;;;;;;;;;56.25;45.00;;;;;14.25;100.00;101415.50;5053763;28;45765;-74
2023/02/21 13:35:34;;;;;;;;;53.75;44.25;;;;;14.29;100.00;101398.72;5037426;28;45485;-74
2023/02/21 13:38:01;;;;;;;;;55.75;45.00;;;;;14.35;100.00;101406.72;5031641;28;45485;-74